| time (UTC) | temp F | wind direction | speed MPH | gust MPH | rain 1hr in | rain 24hr in | rain mn in | humidity % | barometer mb |
| 20260505230106 | 61 | 70 | 1.0 | 6.0 | 0.00 | 0.50 | 0.06 | 49 | 1014.7 |
| 20260505224600 | 59 | 148 | 2.0 | 5.0 | 0.00 | 0.51 | 0.06 | 51 | 1015.0 |
| 20260505223055 | 58 | 313 | 3.0 | 7.0 | 0.00 | 0.51 | 0.06 | 53 | 1015.1 |
| 20260505221559 | 58 | 311 | 2.0 | 4.0 | 0.00 | 0.51 | 0.06 | 53 | 1015.3 |
| 20260505220054 | 57 | 349 | 2.0 | 5.0 | 0.00 | 0.51 | 0.06 | 54 | 1015.6 |
| 20260505214553 | 56 | 252 | 1.0 | 5.0 | 0.00 | 0.51 | 0.06 | 59 | 1015.4 |
| 20260505213054 | 56 | 102 | 1.0 | 3.0 | 0.00 | 0.51 | 0.06 | 59 | 1015.6 |
| 20260505211549 | 55 | 102 | 0.0 | 6.0 | 0.00 | 0.51 | 0.06 | 60 | 1015.8 |
| 20260505210055 | 55 | 84 | 0.0 | 6.0 | 0.00 | 0.51 | 0.06 | 65 | 1015.9 |
| 20260505204553 | 55 | 89 | 3.0 | 5.0 | 0.00 | 0.52 | 0.06 | 62 | 1016.0 |
| 20260505203059 | 54 | 48 | 2.0 | 5.0 | 0.00 | 0.52 | 0.06 | 62 | 1015.9 |
| 20260505201551 | 55 | 117 | 1.0 | 8.0 | 0.00 | 0.52 | 0.06 | 65 | 1015.8 |
| 20260505200051 | 54 | 255 | 1.0 | 7.0 | 0.00 | 0.52 | 0.06 | 67 | 1015.8 |
| 20260505194605 | 52 | 259 | 3.0 | 6.0 | 0.00 | 0.52 | 0.06 | 68 | 1015.8 |
| 20260505193053 | 52 | 310 | 2.0 | 4.0 | 0.00 | 0.52 | 0.06 | 72 | 1015.9 |
| 20260505191603 | 50 | 293 | 2.0 | 4.0 | 0.00 | 0.52 | 0.06 | 76 | 1015.9 |
| 20260505190056 | 51 | 243 | 1.0 | 4.0 | 0.00 | 0.52 | 0.06 | 76 | 1015.7 |
| 20260505184551 | 51 | 79 | 1.0 | 5.0 | 0.00 | 0.52 | 0.06 | 78 | 1015.5 |
| 20260505183053 | 49 | 105 | 0.0 | 2.0 | 0.00 | 0.52 | 0.06 | 82 | 1015.7 |
| 20260505181554 | 47 | 316 | 1.0 | 2.0 | 0.00 | 0.52 | 0.06 | 83 | 1015.7 |
| 20260505180100 | 46 | 289 | 1.0 | 5.0 | 0.00 | 0.52 | 0.06 | 84 | 1015.7 |
| 20260505174549 | 47 | 276 | 2.0 | 5.0 | 0.00 | 0.52 | 0.06 | 85 | 1015.4 |
| 20260505173110 | 46 | 297 | 2.0 | 6.0 | 0.00 | 0.52 | 0.06 | 87 | 1015.1 |
| 20260505171605 | 46 | 303 | 2.0 | 6.0 | 0.00 | 0.52 | 0.06 | 88 | 1014.9 |
| 20260505170052 | 45 | 303 | 2.0 | 6.0 | 0.00 | 0.52 | 0.06 | 89 | 1014.8 |
| 20260505164558 | 44 | 309 | 2.0 | 5.0 | 0.00 | 0.52 | 0.06 | 89 | 1014.7 |
| 20260505163053 | 43 | 295 | 2.0 | 4.0 | 0.00 | 0.52 | 0.06 | 90 | 1014.8 |
| 20260505161555 | 43 | 298 | 1.0 | 4.0 | 0.00 | 0.52 | 0.06 | 90 | 1014.5 |
| 20260505153053 | 43 | 257 | 0.0 | 2.0 | 0.00 | 0.52 | 0.06 | 91 | 1014.2 |
| 20260505151553 | 42 | 0 | 0.0 | 2.0 | 0.00 | 0.52 | 0.06 | 90 | 1014.0 |
| 20260505150111 | 42 | 0 | 0.0 | 0.0 | 0.00 | 0.52 | 0.06 | 92 | 1013.8 |
| 20260505124559 | 40 | 305 | 0.0 | 4.0 | 0.00 | 0.52 | 0.06 | 93 | 1012.4 |
| 20260505123059 | 40 | 274 | 0.0 | 2.0 | 0.00 | 0.52 | 0.06 | 93 | 1012.2 |
| 20260505121620 | 40 | 0 | 0.0 | 2.0 | 0.00 | 0.52 | 0.06 | 93 | 1012.2 |
| 20260505120057 | 40 | 312 | 1.0 | 2.0 | 0.00 | 0.52 | 0.06 | 93 | 1012.4 |
| 20260505114554 | 40 | 0 | 0.0 | 3.0 | 0.00 | 0.52 | 0.06 | 93 | 1012.4 |
| 20260505113057 | 40 | 0 | 1.0 | 2.0 | 0.00 | 0.52 | 0.06 | 93 | 1012.2 |
| 20260505111554 | 40 | 0 | 0.0 | 1.0 | 0.00 | 0.52 | 0.06 | 93 | 1012.3 |
| 20260505101557 | 40 | 247 | 0.0 | 2.0 | 0.00 | 0.52 | 0.06 | 94 | 1012.5 |
| 20260505100135 | 40 | 0 | 0.0 | 3.0 | 0.00 | 0.52 | 0.06 | 94 | 1012.5 |
| 20260505094555 | 40 | 252 | 0.0 | 1.0 | 0.00 | 0.52 | 0.06 | 94 | 1012.6 |
| 20260505093053 | 40 | 0 | 0.0 | 1.0 | 0.00 | 0.52 | 0.06 | 94 | 1013.0 |
| 20260505091615 | 40 | 0 | 0.0 | 1.0 | 0.00 | 0.52 | 0.06 | 94 | 1013.1 |
| 20260505090100 | 40 | 224 | 0.0 | 2.0 | 0.00 | 0.52 | 0.06 | 94 | 1012.8 |
| 20260505084600 | 40 | 0 | 0.0 | 0.0 | 0.01 | 0.52 | 0.06 | 94 | 1013.0 |
| 20260505083057 | 40 | 0 | 0.0 | 1.0 | 0.01 | 0.52 | 0.06 | 94 | 1013.2 |
| 20260505081600 | 40 | 297 | 0.0 | 2.0 | 0.03 | 0.52 | 0.06 | 94 | 1013.3 |
| 20260505080054 | 40 | 119 | 1.0 | 3.0 | 0.06 | 0.52 | 0.06 | 93 | 1013.2 |
| 20260505074553 | 41 | 271 | 1.0 | 7.0 | 0.06 | 0.52 | 0.05 | 93 | 1013.0 |
| 20260505073058 | 40 | 255 | 1.0 | 5.0 | 0.09 | 0.52 | 0.05 | 94 | 1012.9 |
| 20260505071552 | 40 | 0 | 0.0 | 1.0 | 0.08 | 0.50 | 0.03 | 94 | 1013.6 |
| 20260505070052 | 40 | 148 | 0.0 | 4.0 | 0.05 | 0.47 | 0.00 | 93 | 1013.4 |
| 20260505064553 | 40 | 131 | 0.0 | 4.0 | 0.04 | 0.46 | 0.46 | 93 | 1013.1 |
| 20260505063053 | 40 | 0 | 0.0 | 1.0 | 0.01 | 0.43 | 0.43 | 93 | 1012.9 |
| 20260505061549 | 40 | 92 | 0.0 | 1.0 | 0.00 | 0.42 | 0.42 | 92 | 1013.0 |
| 20260505060056 | 40 | 0 | 0.0 | 1.0 | 0.00 | 0.42 | 0.42 | 91 | 1013.0 |
| 20260505054616 | 40 | 272 | 1.0 | 2.0 | 0.00 | 0.42 | 0.42 | 92 | 1012.9 |
| 20260505053057 | 40 | 64 | 0.0 | 6.0 | 0.00 | 0.42 | 0.42 | 92 | 1013.0 |
| 20260505051552 | 41 | 151 | 0.0 | 0.0 | 0.00 | 0.42 | 0.42 | 93 | 1013.4 |
| 20260505041606 | 41 | 0 | 0.0 | 3.0 | 0.00 | 0.42 | 0.42 | 92 | 1013.0 |
| 20260505040058 | 41 | 0 | 1.0 | 2.0 | 0.01 | 0.42 | 0.42 | 92 | 1012.9 |
| 20260505034553 | 41 | 0 | 0.0 | 2.0 | 0.01 | 0.42 | 0.42 | 91 | 1012.3 |
| 20260505033057 | 40 | 0 | 0.0 | 4.0 | 0.02 | 0.42 | 0.42 | 91 | 1012.1 |
| 20260505031547 | 40 | 0 | 1.0 | 3.0 | 0.02 | 0.42 | 0.42 | 90 | 1012.6 |
| 20260505030103 | 41 | 295 | 1.0 | 6.0 | 0.01 | 0.41 | 0.41 | 89 | 1012.9 |
| 20260505024551 | 42 | 270 | 2.0 | 4.0 | 0.01 | 0.41 | 0.41 | 91 | 1012.9 |
| 20260505023058 | 42 | 0 | 1.0 | 3.0 | 0.05 | 0.40 | 0.40 | 91 | 1012.4 |
| 20260505021558 | 41 | 268 | 2.0 | 6.0 | 0.10 | 0.40 | 0.40 | 90 | 1011.9 |
| 20260505014552 | 42 | 261 | 3.0 | 10.0 | 0.22 | 0.40 | 0.40 | 90 | 1010.7 |
| 20260505013053 | 43 | 255 | 2.0 | 5.0 | 0.19 | 0.35 | 0.35 | 90 | 1012.6 |
| 20260505011554 | 43 | 0 | 0.0 | 2.0 | 0.14 | 0.30 | 0.30 | 90 | 1013.0 |
| 20260505010108 | 43 | 245 | 1.0 | 4.0 | 0.11 | 0.26 | 0.26 | 89 | 1012.8 |
| 20260505004553 | 44 | 280 | 1.0 | 2.0 | 0.05 | 0.18 | 0.18 | 88 | 1012.9 |
| 20260505003053 | 44 | 281 | 1.0 | 6.0 | 0.07 | 0.16 | 0.16 | 87 | 1012.5 |
| 20260505001556 | 44 | 130 | 1.0 | 2.0 | 0.12 | 0.16 | 0.16 | 87 | 1012.4 |
| 20260505000100 | 44 | 258 | 1.0 | 6.0 | 0.12 | 0.15 | 0.15 | 86 | 1011.8 |
| 20260504234554 | 44 | 137 | 2.0 | 7.0 | 0.11 | 0.13 | 0.13 | 84 | 1011.4 |
| 20260504233102 | 45 | 212 | 1.0 | 5.0 | 0.07 | 0.09 | 0.09 | 83 | 1011.7 |
| 20260504231600 | 47 | 283 | 1.0 | 4.0 | 0.02 | 0.04 | 0.04 | 76 | 1011.8 |